Time;durP1;ratioP1;P1;durP2;ratioP2;P2;SDS_P1;SDS_P2;PMS_P1;PMS_P2;Temp;Humidity;BMP_temperature;BMP_pressure;BME280_temperature;BME280_humidity;BME280_pressure;Samples;Min_cycle;Max_cycle;Signal;HPM_P1;HPM_P2
2023/04/07 00:00:11;;;;;;;22.70;6.18;;;;;;;;;;1043638;28;20032;-19
2023/04/07 00:00:42;;;;;;;10.73;4.70;;;;;;;;;;1043439;28;20044;-20
2023/04/07 00:01:12;;;;;;;3.83;2.38;;;;;;;;;;1043806;28;20017;-21
2023/04/07 00:01:43;;;;;;;13.23;3.05;;;;;;;;;;1043708;28;20017;-22
2023/04/07 00:02:14;;;;;;;19.05;5.25;;;;;;;;;;1043840;28;20032;-22
2023/04/07 00:02:45;;;;;;;13.52;2.65;;;;;;;;;;1043565;28;20175;-20
2023/04/07 00:03:16;;;;;;;24.95;4.05;;;;;;;;;;1043968;28;20598;-21
2023/04/07 00:03:46;;;;;;;10.98;4.35;;;;;;;;;;1043703;28;20082;-23
2023/04/07 00:04:17;;;;;;;5.03;3.30;;;;;;;;;;1043858;28;20524;-19
2023/04/07 00:04:48;;;;;;;6.00;3.80;;;;;;;;;;1043671;28;20481;-22
2023/04/07 00:05:19;;;;;;;6.70;2.88;;;;;;;;;;1043949;28;20033;-22
2023/04/07 00:05:49;;;;;;;16.65;5.60;;;;;;;;;;1044133;28;20032;-20
2023/04/07 00:06:20;;;;;;;13.48;4.63;;;;;;;;;;1043782;28;20020;-21
2023/04/07 00:06:50;;;;;;;6.90;3.33;;;;;;;;;;1043749;28;20406;-22
2023/04/07 00:07:21;;;;;;;8.15;4.22;;;;;;;;;;1043800;28;20580;-19
2023/04/07 00:07:52;;;;;;;30.20;4.05;;;;;;;;;;1043362;28;20040;-22
2023/04/07 00:08:22;;;;;;;3.95;2.75;;;;;;;;;;1043938;28;20028;-22
2023/04/07 00:08:53;;;;;;;20.58;4.28;;;;;;;;;;1043818;28;20028;-20
2023/04/07 00:09:23;;;;;;;9.75;2.97;;;;;;;;;;1043867;28;20021;-23
2023/04/07 00:09:54;;;;;;;3.28;2.13;;;;;;;;;;1043219;28;20060;-21
2023/04/07 00:10:24;;;;;;;2.75;2.08;;;;;;;;;;1042756;28;20025;-20
2023/04/07 00:10:56;;;;;;;7.97;2.58;;;;;;;;;;1043715;28;20023;-23
2023/04/07 00:11:26;;;;;;;4.45;3.03;;;;;;;;;;1043764;28;20017;-21
2023/04/07 00:11:57;;;;;;;6.07;3.08;;;;;;;;;;1043655;28;20366;-21
2023/04/07 00:12:27;;;;;;;4.15;2.72;;;;;;;;;;1043456;28;20389;-23
2023/04/07 00:12:58;;;;;;;10.43;3.72;;;;;;;;;;1043416;28;20067;-23
2023/04/07 00:13:28;;;;;;;4.70;1.95;;;;;;;;;;1043491;28;20021;-21
2023/04/07 00:13:59;;;;;;;9.27;3.72;;;;;;;;;;1043506;28;20555;-19
2023/04/07 00:14:30;;;;;;;8.63;1.98;;;;;;;;;;1043397;28;20036;-23
2023/04/07 00:15:00;;;;;;;16.80;4.15;;;;;;;;;;1043856;28;20568;-21
2023/04/07 00:15:31;;;;;;;10.95;3.13;;;;;;;;;;1043734;28;20020;-22
2023/04/07 00:16:01;;;;;;;6.55;2.65;;;;;;;;;;1043826;28;20033;-22
2023/04/07 00:16:32;;;;;;;5.43;4.35;;;;;;;;;;1043670;28;20025;-22
2023/04/07 00:17:02;;;;;;;10.63;3.83;;;;;;;;;;1044013;28;20039;-22
2023/04/07 00:17:33;;;;;;;12.73;3.92;;;;;;;;;;1043582;28;20025;-22
2023/04/07 00:18:03;;;;;;;23.88;5.13;;;;;;;;;;1043864;28;20028;-23
2023/04/07 00:18:34;;;;;;;20.25;5.63;;;;;;;;;;1043638;28;20028;-23
2023/04/07 00:19:04;;;;;;;8.77;2.50;;;;;;;;;;1043891;28;20066;-23
2023/04/07 00:19:35;;;;;;;6.47;3.35;;;;;;;;;;1043616;28;20130;-19
2023/04/07 00:20:06;;;;;;;17.00;3.28;;;;;;;;;;1043843;28;20028;-22
2023/04/07 00:20:36;;;;;;;25.42;3.28;;;;;;;;;;1043661;28;20099;-21
2023/04/07 00:21:07;;;;;;;8.98;3.50;;;;;;;;;;1043875;28;20025;-23
2023/04/07 00:21:37;;;;;;;14.35;3.38;;;;;;;;;;1043447;28;20021;-21
2023/04/07 00:22:08;;;;;;;4.68;2.97;;;;;;;;;;1043577;28;20484;-22
2023/04/07 00:22:38;;;;;;;8.98;2.67;;;;;;;;;;1043593;28;20107;-21
2023/04/07 00:23:09;;;;;;;9.30;2.28;;;;;;;;;;1043798;28;20021;-21
2023/04/07 00:23:39;;;;;;;2.63;1.85;;;;;;;;;;1043485;28;20021;-23
2023/04/07 00:24:10;;;;;;;48.17;3.92;;;;;;;;;;1043744;28;20039;-23
2023/04/07 00:24:41;;;;;;;3.92;2.17;;;;;;;;;;1043673;28;20020;-23
2023/04/07 00:25:11;;;;;;;7.97;3.53;;;;;;;;;;1043979;28;20562;-23
2023/04/07 00:25:42;;;;;;;2.83;1.45;;;;;;;;;;1043810;28;20120;-22
2023/04/07 00:26:12;;;;;;;3.65;1.80;;;;;;;;;;1043710;28;20540;-21
2023/04/07 00:26:43;;;;;;;4.30;2.42;;;;;;;;;;1043670;28;20502;-22
2023/04/07 00:27:13;;;;;;;19.20;2.25;;;;;;;;;;1043542;28;20112;-21
2023/04/07 00:27:44;;;;;;;4.82;3.85;;;;;;;;;;1043668;28;20125;-20
2023/04/07 00:28:14;;;;;;;5.38;2.85;;;;;;;;;;1043882;28;20043;-23
2023/04/07 00:28:45;;;;;;;10.88;3.65;;;;;;;;;;1043679;28;20384;-21
2023/04/07 00:29:15;;;;;;;3.30;1.48;;;;;;;;;;1043903;28;20016;-23
2023/04/07 00:29:46;;;;;;;2.53;1.83;;;;;;;;;;1043570;28;20107;-23
2023/04/07 00:30:16;;;;;;;8.23;1.58;;;;;;;;;;1043860;28;20108;-23
2023/04/07 00:30:47;;;;;;;2.55;1.83;;;;;;;;;;1043717;28;20131;-22
2023/04/07 00:31:17;;;;;;;2.47;1.10;;;;;;;;;;1043825;28;20032;-23
2023/04/07 00:31:48;;;;;;;4.03;1.90;;;;;;;;;;1043543;28;20124;-20
2023/04/07 00:32:19;;;;;;;6.72;2.35;;;;;;;;;;1043729;28;20495;-21
2023/04/07 00:32:50;;;;;;;1.02;0.75;;;;;;;;;;1043674;28;20021;-23
2023/04/07 00:33:21;;;;;;;4.43;2.80;;;;;;;;;;1043723;28;20024;-23
2023/04/07 00:33:51;;;;;;;2.55;1.45;;;;;;;;;;1043216;28;20498;-23
2023/04/07 00:34:22;;;;;;;3.90;2.97;;;;;;;;;;1043577;28;20028;-23
2023/04/07 00:34:52;;;;;;;23.35;1.67;;;;;;;;;;1043117;28;20388;-23
2023/04/07 00:35:23;;;;;;;11.50;2.08;;;;;;;;;;1043457;28;20021;-23
2023/04/07 00:35:53;;;;;;;2.22;2.03;;;;;;;;;;1043498;28;20427;-22
2023/04/07 00:36:24;;;;;;;1.73;1.48;;;;;;;;;;1043657;28;20476;-20
2023/04/07 00:36:55;;;;;;;0.85;0.60;;;;;;;;;;1042558;28;20400;-23
2023/04/07 00:37:26;;;;;;;17.65;2.95;;;;;;;;;;1043657;28;20028;-21
2023/04/07 00:37:56;;;;;;;4.25;1.83;;;;;;;;;;1043639;28;20024;-21
2023/04/07 00:38:27;;;;;;;3.45;0.80;;;;;;;;;;1043741;28;20031;-20
2023/04/07 00:38:58;;;;;;;2.10;1.60;;;;;;;;;;1043740;28;20032;-21
2023/04/07 00:39:29;;;;;;;13.15;1.67;;;;;;;;;;1043698;28;20420;-22
2023/04/07 00:39:59;;;;;;;2.97;1.50;;;;;;;;;;1043738;28;20025;-23
2023/04/07 00:40:30;;;;;;;1.98;1.65;;;;;;;;;;1043626;28;20021;-22
2023/04/07 00:41:00;;;;;;;14.55;0.82;;;;;;;;;;1043767;28;20062;-21
2023/04/07 00:41:33;;;;;;;2.20;1.70;;;;;;;;;;1043573;28;20095;-22
2023/04/07 00:42:05;;;;;;;8.80;1.60;;;;;;;;;;1043046;28;20031;-20
2023/04/07 00:42:36;;;;;;;3.53;1.88;;;;;;;;;;1043516;28;20029;-23
2023/04/07 00:43:06;;;;;;;10.80;2.22;;;;;;;;;;1044677;28;20017;-22
2023/04/07 00:43:37;;;;;;;10.68;2.15;;;;;;;;;;1044481;28;20074;-23
2023/04/07 00:44:07;;;;;;;4.88;3.20;;;;;;;;;;1044377;28;20029;-23
2023/04/07 00:44:38;;;;;;;3.70;3.20;;;;;;;;;;1044434;28;20029;-19
2023/04/07 00:45:10;;;;;;;9.07;1.80;;;;;;;;;;1044501;28;20472;-22
2023/04/07 00:45:40;;;;;;;4.70;2.40;;;;;;;;;;1043428;28;20031;-23
2023/04/07 00:46:11;;;;;;;5.38;1.75;;;;;;;;;;1044561;28;20071;-23
2023/04/07 00:46:41;;;;;;;1.38;0.90;;;;;;;;;;1044443;28;20607;-21
2023/04/07 00:47:12;;;;;;;4.47;1.67;;;;;;;;;;1044670;28;20494;-24
2023/04/07 00:47:43;;;;;;;2.42;1.60;;;;;;;;;;1044413;28;20021;-22
2023/04/07 00:48:13;;;;;;;1.80;1.60;;;;;;;;;;1044602;28;20028;-19
2023/04/07 00:48:44;;;;;;;2.35;1.80;;;;;;;;;;1044436;28;20039;-23
2023/04/07 00:49:16;;;;;;;3.80;1.77;;;;;;;;;;1044709;28;20025;-23
2023/04/07 00:49:47;;;;;;;0.75;0.73;;;;;;;;;;1044311;28;20025;-23
2023/04/07 00:50:18;;;;;;;4.90;1.67;;;;;;;;;;1044711;28;20025;-23
2023/04/07 00:50:48;;;;;;;5.63;3.05;;;;;;;;;;1043938;28;20031;-22
2023/04/07 00:51:20;;;;;;;6.25;1.60;;;;;;;;;;1044509;28;20025;-23
2023/04/07 00:51:51;;;;;;;1.67;0.60;;;;;;;;;;1044392;28;20108;-21
2023/04/07 00:52:27;;;;;;;1.98;1.33;;;;;;;;;;1044648;28;20021;-22
2023/04/07 00:52:58;;;;;;;1.58;1.13;;;;;;;;;;1043836;28;20033;-21
2023/04/07 00:53:28;;;;;;;2.45;1.60;;;;;;;;;;1044523;28;20104;-21
2023/04/07 00:53:59;;;;;;;1.30;0.60;;;;;;;;;;1044449;28;20175;-21
2023/04/07 00:54:30;;;;;;;0.60;0.60;;;;;;;;;;1044529;28;20029;-23
2023/04/07 00:55:00;;;;;;;2.10;1.23;;;;;;;;;;1044567;28;20493;-23
2023/04/07 00:55:31;;;;;;;1.20;0.73;;;;;;;;;;1044422;28;20428;-21
2023/04/07 00:56:01;;;;;;;2.85;2.13;;;;;;;;;;1044622;28;20080;-22
2023/04/07 00:56:32;;;;;;;3.50;1.70;;;;;;;;;;1044307;28;20025;-23
2023/04/07 00:57:02;;;;;;;11.10;1.65;;;;;;;;;;1044321;28;20013;-23
2023/04/07 00:57:33;;;;;;;6.47;2.40;;;;;;;;;;1044224;28;20025;-22
2023/04/07 00:58:06;;;;;;;3.53;2.00;;;;;;;;;;1044441;28;20017;-21
2023/04/07 00:58:37;;;;;;;9.68;3.78;;;;;;;;;;1044308;28;20397;-22
2023/04/07 00:59:07;;;;;;;1.52;1.42;;;;;;;;;;1044622;28;20032;-23
2023/04/07 00:59:38;;;;;;;2.90;1.23;;;;;;;;;;1044369;28;20377;-22
2023/04/07 01:00:09;;;;;;;7.30;2.97;;;;;;;;;;1044367;28;20370;-22
2023/04/07 01:00:42;;;;;;;4.32;1.75;;;;;;;;;;1042785;28;20501;-22
2023/04/07 01:01:20;;;;;;;3.03;2.20;;;;;;;;;;1044200;28;20028;-22
2023/04/07 01:01:50;;;;;;;7.38;2.58;;;;;;;;;;1043695;28;20025;-22
2023/04/07 01:02:27;;;;;;;1.48;1.38;;;;;;;;;;1044415;28;20021;-23
2023/04/07 01:03:00;;;;;;;2.50;1.35;;;;;;;;;;1044394;28;20025;-22
2023/04/07 01:03:34;;;;;;;1.42;1.33;;;;;;;;;;1044261;28;20384;-22
2023/04/07 01:04:08;;;;;;;9.68;1.98;;;;;;;;;;1044031;28;20083;-23
2023/04/07 01:04:43;;;;;;;2.47;1.05;;;;;;;;;;1044394;28;20401;-21
2023/04/07 01:05:21;;;;;;;2.05;1.85;;;;;;;;;;1043962;28;20036;-23
2023/04/07 01:05:59;;;;;;;8.63;2.10;;;;;;;;;;1044158;28;20032;-18
2023/04/07 01:06:32;;;;;;;3.05;2.42;;;;;;;;;;1044414;28;20396;-21
2023/04/07 01:07:08;;;;;;;3.42;3.13;;;;;;;;;;1044641;28;20031;-20
2023/04/07 01:07:47;;;;;;;11.55;4.38;;;;;;;;;;1044288;28;20484;-21
2023/04/07 01:08:24;;;;;;;2.63;1.38;;;;;;;;;;1044485;28;20025;-21
2023/04/07 01:09:03;;;;;;;7.70;1.40;;;;;;;;;;1044310;28;20059;-22
2023/04/07 01:09:40;;;;;;;1.88;0.95;;;;;;;;;;1043786;28;20096;-21
2023/04/07 01:10:14;;;;;;;7.30;1.10;;;;;;;;;;1044243;28;20025;-22
2023/04/07 01:11:05;;;;;;;3.75;3.42;;;;;;;;;;1044346;28;20025;-21
2023/04/07 01:11:38;;;;;;;1.80;1.20;;;;;;;;;;1044083;28;20374;-21
2023/04/07 01:12:08;;;;;;;6.35;1.55;;;;;;;;;;1044004;28;20091;-23
2023/04/07 01:12:43;;;;;;;0.73;0.73;;;;;;;;;;1044410;28;20452;-22
2023/04/07 01:13:14;;;;;;;2.08;1.02;;;;;;;;;;1044074;28;20029;-22
2023/04/07 01:13:51;;;;;;;1.40;1.30;;;;;;;;;;1044228;28;20036;-21
2023/04/07 01:14:22;;;;;;;0.45;0.45;;;;;;;;;;1044463;28;20029;-23
2023/04/07 01:14:57;;;;;;;2.22;1.88;;;;;;;;;;1044382;28;20078;-19
2023/04/07 01:15:30;;;;;;;3.60;2.30;;;;;;;;;;1043895;28;20021;-22
2023/04/07 01:16:03;;;;;;;0.93;0.68;;;;;;;;;;1044327;28;20116;-21
2023/04/07 01:16:54;;;;;;;2.40;1.15;;;;;;;;;;1043939;28;20016;-22
2023/04/07 01:17:26;;;;;;;4.95;1.85;;;;;;;;;;1043432;28;20025;-22
2023/04/07 01:18:06;;;;;;;2.58;1.30;;;;;;;;;;1044340;28;20052;-22
2023/04/07 01:18:37;;;;;;;10.13;1.02;;;;;;;;;;1044149;28;20025;-22
2023/04/07 01:19:16;;;;;;;6.03;2.63;;;;;;;;;;1044213;28;20032;-22
2023/04/07 01:19:51;;;;;;;1.98;1.60;;;;;;;;;;1044081;28;20527;-22
2023/04/07 01:20:23;;;;;;;0.30;0.30;;;;;;;;;;1044590;28;20029;-22
2023/04/07 01:20:56;;;;;;;2.65;1.70;;;;;;;;;;1044278;28;20103;-22
2023/04/07 01:21:27;;;;;;;13.15;2.70;;;;;;;;;;1043617;28;20028;-22
2023/04/07 01:21:59;;;;;;;3.20;1.15;;;;;;;;;;1044356;28;20033;-19
2023/04/07 01:23:04;;;;;;;2.10;1.08;;;;;;;;;;1044458;28;20408;-23
2023/04/07 01:23:35;;;;;;;2.15;1.85;;;;;;;;;;1029755;28;20033;-22
2023/04/07 01:24:18;;;;;;;1.08;1.05;;;;;;;;;;1031261;28;20034;-24
2023/04/07 01:24:56;;;;;;;0.95;0.73;;;;;;;;;;1029394;28;20352;-24
2023/04/07 01:25:41;;;;;;;1.10;1.00;;;;;;;;;;1031118;28;20118;-22
2023/04/07 01:26:19;;;;;;;4.63;2.00;;;;;;;;;;1033712;28;20027;-22
2023/04/07 01:26:50;;;;;;;2.35;1.50;;;;;;;;;;1043896;28;20043;-22
2023/04/07 01:27:30;;;;;;;2.67;1.17;;;;;;;;;;1044145;28;20028;-23
2023/04/07 01:28:02;;;;;;;5.10;1.67;;;;;;;;;;1044506;28;20028;-22
2023/04/07 01:28:32;;;;;;;5.57;1.73;;;;;;;;;;1044208;28;20120;-21
2023/04/07 01:29:10;;;;;;;2.80;1.08;;;;;;;;;;1044498;28;20388;-20
2023/04/07 01:29:46;;;;;;;2.20;1.35;;;;;;;;;;1043251;28;20028;-22
2023/04/07 01:30:17;;;;;;;13.40;2.05;;;;;;;;;;1044552;28;20023;-23
2023/04/07 01:30:48;;;;;;;0.52;0.50;;;;;;;;;;1044380;28;20111;-20
2023/04/07 01:31:19;;;;;;;7.90;2.10;;;;;;;;;;1044013;28;20107;-22
2023/04/07 01:31:50;;;;;;;4.07;1.27;;;;;;;;;;1044281;28;20025;-18
2023/04/07 01:32:21;;;;;;;0.93;0.70;;;;;;;;;;1044468;28;20021;-22
2023/04/07 01:32:52;;;;;;;0.57;0.52;;;;;;;;;;1044300;28;20159;-20
2023/04/07 01:33:23;;;;;;;1.55;1.05;;;;;;;;;;1044029;28;20028;-23
2023/04/07 01:33:55;;;;;;;3.65;1.58;;;;;;;;;;1044271;28;20484;-22
2023/04/07 01:34:26;;;;;;;2.58;1.85;;;;;;;;;;1043385;28;20103;-23
2023/04/07 01:34:57;;;;;;;9.52;2.95;;;;;;;;;;1044274;28;20108;-22
2023/04/07 01:35:29;;;;;;;11.50;1.20;;;;;;;;;;1044515;28;20524;-21
2023/04/07 01:36:01;;;;;;;6.45;2.65;;;;;;;;;;1044261;28;20078;-23
2023/04/07 01:36:33;;;;;;;1.60;0.93;;;;;;;;;;1044242;28;20031;-22
2023/04/07 01:37:04;;;;;;;2.05;1.38;;;;;;;;;;1044049;28;20074;-18
2023/04/07 01:37:35;;;;;;;15.63;1.63;;;;;;;;;;1044183;28;20021;-21
2023/04/07 01:38:05;;;;;;;5.88;1.60;;;;;;;;;;1044410;28;20044;-23
2023/04/07 01:38:36;;;;;;;2.60;1.02;;;;;;;;;;1044197;28;20028;-22
2023/04/07 01:39:08;;;;;;;2.90;1.60;;;;;;;;;;1044515;28;20049;-23
2023/04/07 01:39:39;;;;;;;3.53;0.63;;;;;;;;;;1044130;28;20078;-22
2023/04/07 01:40:10;;;;;;;2.97;1.73;;;;;;;;;;1043282;28;20027;-23
2023/04/07 01:40:41;;;;;;;9.68;2.25;;;;;;;;;;1043240;28;20020;-20
2023/04/07 01:41:14;;;;;;;5.50;4.00;;;;;;;;;;1044436;28;20024;-22
2023/04/07 01:41:45;;;;;;;3.50;2.42;;;;;;;;;;1044243;28;20507;-22
2023/04/07 01:42:15;;;;;;;8.02;2.35;;;;;;;;;;1044101;28;20032;-22
2023/04/07 01:42:47;;;;;;;2.22;1.52;;;;;;;;;;1043550;28;20025;-22
2023/04/07 01:43:18;;;;;;;11.82;1.75;;;;;;;;;;1044274;28;20484;-22
2023/04/07 01:43:49;;;;;;;3.03;2.17;;;;;;;;;;1044232;28;20021;-20
2023/04/07 01:44:20;;;;;;;2.45;1.23;;;;;;;;;;1044379;28;20103;-22
2023/04/07 01:44:51;;;;;;;2.25;2.05;;;;;;;;;;1044145;28;20060;-21
2023/04/07 01:45:22;;;;;;;1.42;0.60;;;;;;;;;;1044358;28;20573;-23
2023/04/07 01:45:53;;;;;;;1.95;1.33;;;;;;;;;;1043906;28;20064;-23
2023/04/07 01:46:24;;;;;;;3.45;1.80;;;;;;;;;;1044418;28;20028;-22
2023/04/07 01:46:55;;;;;;;3.90;1.38;;;;;;;;;;1044308;28;20432;-25
2023/04/07 01:47:29;;;;;;;5.00;1.95;;;;;;;;;;1044352;28;20020;-21
2023/04/07 01:47:59;;;;;;;10.98;3.10;;;;;;;;;;1044317;28;20037;-24
2023/04/07 01:48:30;;;;;;;14.90;1.38;;;;;;;;;;1044309;28;20484;-25
2023/04/07 01:49:01;;;;;;;3.92;1.80;;;;;;;;;;1044419;28;20028;-25
2023/04/07 01:49:32;;;;;;;2.38;2.17;;;;;;;;;;1044179;28;20369;-24
2023/04/07 01:50:04;;;;;;;9.63;1.73;;;;;;;;;;1043842;28;20395;-24
2023/04/07 01:50:35;;;;;;;1.90;1.52;;;;;;;;;;1044175;28;20139;-26
2023/04/07 01:51:06;;;;;;;2.13;1.75;;;;;;;;;;1044373;28;20025;-24
2023/04/07 01:51:37;;;;;;;24.90;2.95;;;;;;;;;;1044084;28;20017;-23
2023/04/07 01:52:08;;;;;;;7.13;1.17;;;;;;;;;;1044371;28;20511;-20
2023/04/07 01:52:39;;;;;;;4.97;2.67;;;;;;;;;;1044272;28;20060;-22
2023/04/07 01:53:10;;;;;;;3.53;1.42;;;;;;;;;;1044349;28;20115;-21
2023/04/07 01:53:40;;;;;;;1.20;0.90;;;;;;;;;;1043673;28;20389;-23
2023/04/07 01:54:11;;;;;;;5.75;3.00;;;;;;;;;;1044384;28;20107;-21
2023/04/07 01:54:42;;;;;;;5.43;2.10;;;;;;;;;;1044132;28;20564;-23
2023/04/07 01:55:12;;;;;;;2.15;1.80;;;;;;;;;;1044316;28;20035;-23
2023/04/07 01:55:43;;;;;;;4.07;0.93;;;;;;;;;;1044168;28;20174;-20
2023/04/07 01:56:14;;;;;;;2.05;0.57;;;;;;;;;;1044174;28;20047;-23
2023/04/07 01:56:44;;;;;;;8.70;2.70;;;;;;;;;;1044188;28;20029;-22
2023/04/07 01:57:15;;;;;;;9.70;2.35;;;;;;;;;;1043774;28;20040;-21
2023/04/07 01:57:46;;;;;;;4.65;1.27;;;;;;;;;;1043387;28;20079;-20
2023/04/07 01:58:16;;;;;;;3.13;1.75;;;;;;;;;;1044468;28;20017;-20
2023/04/07 01:58:47;;;;;;;2.40;0.90;;;;;;;;;;1044246;28;20052;-21
2023/04/07 01:59:17;;;;;;;2.42;1.20;;;;;;;;;;1044006;28;20027;-21
2023/04/07 01:59:48;;;;;;;2.85;2.15;;;;;;;;;;1043719;28;20519;-22
2023/04/07 02:00:18;;;;;;;9.10;3.00;;;;;;;;;;1044057;28;20024;-22
2023/04/07 02:00:50;;;;;;;5.78;1.50;;;;;;;;;;1043752;28;20056;-22
2023/04/07 02:01:20;;;;;;;2.63;1.35;;;;;;;;;;1044397;28;20049;-21
2023/04/07 02:01:51;;;;;;;6.13;2.17;;;;;;;;;;1044169;28;20033;-21
2023/04/07 02:02:22;;;;;;;0.95;0.95;;;;;;;;;;1044303;28;20163;-23
2023/04/07 02:02:58;;;;;;;10.85;1.67;;;;;;;;;;1043941;28;20500;-22
2023/04/07 02:03:34;;;;;;;4.70;2.22;;;;;;;;;;1043737;28;20029;-23
2023/04/07 02:04:23;;;;;;;4.95;2.10;;;;;;;;;;1043930;28;20078;-22
2023/04/07 02:04:55;;;;;;;3.03;1.48;;;;;;;;;;1044378;28;20029;-21
2023/04/07 02:05:27;;;;;;;6.70;2.70;;;;;;;;;;1043214;28;20397;-22
2023/04/07 02:06:02;;;;;;;3.35;1.42;;;;;;;;;;1043993;28;20025;-22
2023/04/07 02:06:47;;;;;;;13.80;3.05;;;;;;;;;;1043559;28;20029;-22
2023/04/07 02:07:27;;;;;;;10.43;2.70;;;;;;;;;;1043775;28;20025;-21
2023/04/07 02:08:00;;;;;;;1.40;1.30;;;;;;;;;;1044254;28;20028;-23
2023/04/07 02:08:31;;;;;;;17.52;3.17;;;;;;;;;;1044175;28;20516;-20
2023/04/07 02:09:04;;;;;;;14.98;2.90;;;;;;;;;;1044518;28;20021;-21
2023/04/07 02:09:37;;;;;;;5.05;1.77;;;;;;;;;;1043887;28;20109;-22
2023/04/07 02:10:11;;;;;;;4.40;3.30;;;;;;;;;;1043594;28;20025;-22
2023/04/07 02:10:42;;;;;;;7.47;1.75;;;;;;;;;;1043208;28;20451;-23
2023/04/07 02:11:14;;;;;;;2.13;1.30;;;;;;;;;;1044302;28;20033;-23
2023/04/07 02:11:45;;;;;;;3.60;1.92;;;;;;;;;;1044137;28;20166;-22
2023/04/07 02:12:16;;;;;;;2.88;2.05;;;;;;;;;;1043868;28;20021;-20
2023/04/07 02:12:47;;;;;;;15.93;3.00;;;;;;;;;;1043422;28;20015;-23
2023/04/07 02:13:19;;;;;;;6.28;1.73;;;;;;;;;;1044361;28;20032;-23
2023/04/07 02:13:51;;;;;;;2.90;2.17;;;;;;;;;;1043698;28;20071;-21
2023/04/07 02:14:23;;;;;;;1.92;0.85;;;;;;;;;;1044304;28;20025;-22
2023/04/07 02:14:54;;;;;;;1.27;0.95;;;;;;;;;;1044043;28;20021;-20
2023/04/07 02:15:25;;;;;;;1.13;1.02;;;;;;;;;;1044118;28;20035;-23
2023/04/07 02:15:56;;;;;;;4.25;2.05;;;;;;;;;;1043996;28;20025;-22
2023/04/07 02:16:29;;;;;;;3.55;1.42;;;;;;;;;;1044310;28;20162;-22
2023/04/07 02:17:00;;;;;;;1.20;1.10;;;;;;;;;;1044355;28;20473;-20
2023/04/07 02:17:33;;;;;;;7.75;3.13;;;;;;;;;;1044194;28;20021;-21
2023/04/07 02:18:05;;;;;;;3.38;1.00;;;;;;;;;;1043877;28;20428;-19
2023/04/07 02:18:36;;;;;;;1.33;0.73;;;;;;;;;;1043961;28;20476;-20
2023/04/07 02:19:07;;;;;;;1.67;0.73;;;;;;;;;;1044057;28;20480;-23
2023/04/07 02:19:38;;;;;;;0.88;0.88;;;;;;;;;;1044085;28;20029;-21
2023/04/07 02:20:10;;;;;;;2.28;1.48;;;;;;;;;;1044228;28;20464;-23
2023/04/07 02:20:42;;;;;;;2.85;1.35;;;;;;;;;;1043247;28;20032;-23
2023/04/07 02:21:14;;;;;;;11.13;1.90;;;;;;;;;;1044162;28;20025;-22
2023/04/07 02:21:45;;;;;;;16.85;2.88;;;;;;;;;;1044059;28;20032;-22
2023/04/07 02:22:16;;;;;;;7.93;1.55;;;;;;;;;;1044161;28;20119;-22
2023/04/07 02:22:47;;;;;;;7.50;1.05;;;;;;;;;;1044124;28;20035;-23
2023/04/07 02:23:17;;;;;;;2.15;1.33;;;;;;;;;;1044259;28;20032;-18
2023/04/07 02:23:48;;;;;;;2.28;1.05;;;;;;;;;;1043364;28;20032;-23
2023/04/07 02:24:19;;;;;;;1.17;1.08;;;;;;;;;;1044188;28;20032;-20
2023/04/07 02:24:50;;;;;;;3.22;1.95;;;;;;;;;;1043924;28;20029;-23
2023/04/07 02:25:25;;;;;;;1.55;1.25;;;;;;;;;;1044055;28;20024;-22
2023/04/07 02:25:57;;;;;;;8.98;1.55;;;;;;;;;;1043077;28;20384;-22
2023/04/07 02:26:31;;;;;;;3.60;2.63;;;;;;;;;;1043811;28;20025;-22
2023/04/07 02:27:02;;;;;;;3.55;1.98;;;;;;;;;;1043652;28;20570;-21
2023/04/07 02:27:32;;;;;;;5.03;1.83;;;;;;;;;;1043404;28;20021;-20
2023/04/07 02:28:03;;;;;;;13.98;1.00;;;;;;;;;;1043941;28;20408;-23
2023/04/07 02:28:34;;;;;;;6.53;1.50;;;;;;;;;;1043977;28;20025;-22
2023/04/07 02:29:05;;;;;;;2.80;1.70;;;;;;;;;;1044298;28;20087;-23
2023/04/07 02:29:35;;;;;;;7.10;1.60;;;;;;;;;;1043967;28;20397;-22
2023/04/07 02:30:06;;;;;;;1.42;1.13;;;;;;;;;;1044018;28;20025;-23
2023/04/07 02:30:36;;;;;;;3.80;1.67;;;;;;;;;;1043978;28;20067;-22
2023/04/07 02:31:07;;;;;;;3.85;3.38;;;;;;;;;;1044287;28;20057;-22
2023/04/07 02:31:38;;;;;;;4.93;2.45;;;;;;;;;;1044006;28;20469;-21
2023/04/07 02:32:08;;;;;;;4.07;2.70;;;;;;;;;;1044166;28;20082;-23
2023/04/07 02:32:39;;;;;;;0.90;0.90;;;;;;;;;;1044066;28;20021;-23
2023/04/07 02:33:09;;;;;;;12.43;1.80;;;;;;;;;;1043142;28;20024;-21
2023/04/07 02:33:40;;;;;;;4.22;1.95;;;;;;;;;;1042902;28;20104;-22
2023/04/07 02:34:11;;;;;;;9.38;3.00;;;;;;;;;;1044203;28;20055;-22
2023/04/07 02:34:41;;;;;;;2.10;1.70;;;;;;;;;;1044002;28;20051;-23
2023/04/07 02:35:12;;;;;;;2.15;0.85;;;;;;;;;;1044327;28;20029;-22
2023/04/07 02:35:42;;;;;;;1.90;1.70;;;;;;;;;;1043973;28;20032;-20
2023/04/07 02:36:13;;;;;;;2.25;1.95;;;;;;;;;;1044125;28;20021;-22
2023/04/07 02:36:43;;;;;;;2.80;2.53;;;;;;;;;;1044004;28;20016;-21
2023/04/07 02:37:14;;;;;;;1.42;1.33;;;;;;;;;;1044106;28;20020;-23
2023/04/07 02:37:45;;;;;;;1.75;1.20;;;;;;;;;;1043961;28;20182;-23
2023/04/07 02:38:15;;;;;;;2.35;2.15;;;;;;;;;;1044211;28;20037;-23
2023/04/07 02:38:46;;;;;;;6.55;1.27;;;;;;;;;;1044124;28;20021;-22
2023/04/07 02:39:16;;;;;;;7.82;1.42;;;;;;;;;;1044186;28;20111;-20
2023/04/07 02:39:47;;;;;;;2.50;1.63;;;;;;;;;;1043870;28;20021;-23
2023/04/07 02:40:17;;;;;;;2.72;1.92;;;;;;;;;;1044166;28;20465;-21
2023/04/07 02:40:48;;;;;;;1.60;0.93;;;;;;;;;;1043931;28;20016;-20
2023/04/07 02:41:18;;;;;;;1.65;1.52;;;;;;;;;;1044109;28;20507;-20
2023/04/07 02:41:49;;;;;;;6.60;2.47;;;;;;;;;;1043974;28;20465;-22
2023/04/07 02:42:19;;;;;;;3.85;1.77;;;;;;;;;;1043707;28;20087;-23
2023/04/07 02:42:50;;;;;;;4.05;1.63;;;;;;;;;;1043959;28;20033;-22
2023/04/07 02:43:21;;;;;;;4.00;1.92;;;;;;;;;;1044123;28;20021;-22
2023/04/07 02:43:52;;;;;;;2.50;2.15;;;;;;;;;;1043922;28;20139;-20
2023/04/07 02:44:22;;;;;;;7.88;1.42;;;;;;;;;;1043947;28;20419;-22
2023/04/07 02:44:53;;;;;;;28.60;2.50;;;;;;;;;;1043814;28;20067;-21
2023/04/07 02:45:23;;;;;;;1.58;0.88;;;;;;;;;;1044078;28;20036;-23
2023/04/07 02:45:54;;;;;;;14.65;2.63;;;;;;;;;;1043947;28;20057;-21
2023/04/07 02:46:24;;;;;;;2.10;1.90;;;;;;;;;;1044086;28;20017;-22
2023/04/07 02:46:55;;;;;;;4.47;2.85;;;;;;;;;;1044154;28;20429;-22
2023/04/07 02:47:25;;;;;;;2.75;1.58;;;;;;;;;;1044138;28;20067;-23
2023/04/07 02:47:56;;;;;;;6.03;2.10;;;;;;;;;;1044099;28;20025;-23
2023/04/07 02:48:26;;;;;;;13.48;2.35;;;;;;;;;;1044109;28;20462;-22
2023/04/07 02:48:57;;;;;;;8.77;1.83;;;;;;;;;;1044027;28;20043;-19
2023/04/07 02:49:27;;;;;;;2.47;1.20;;;;;;;;;;1044066;28;20021;-22
2023/04/07 02:49:58;;;;;;;1.35;1.00;;;;;;;;;;1043979;28;20021;-22
2023/04/07 02:50:28;;;;;;;1.05;1.00;;;;;;;;;;1044055;28;20021;-22
2023/04/07 02:50:59;;;;;;;6.68;2.28;;;;;;;;;;1043991;28;20381;-22
2023/04/07 02:51:30;;;;;;;5.35;1.98;;;;;;;;;;1043981;28;20028;-22
2023/04/07 02:52:01;;;;;;;5.15;2.65;;;;;;;;;;1044158;28;20032;-22
2023/04/07 02:52:31;;;;;;;1.52;1.27;;;;;;;;;;1043964;28;20123;-22
2023/04/07 02:53:02;;;;;;;4.32;2.00;;;;;;;;;;1044232;28;20111;-21
2023/04/07 02:53:32;;;;;;;9.20;3.70;;;;;;;;;;1043889;28;20020;-22
2023/04/07 02:54:03;;;;;;;2.95;1.90;;;;;;;;;;1043539;28;20029;-22
2023/04/07 02:54:33;;;;;;;6.60;2.67;;;;;;;;;;1043926;28;20074;-22
2023/04/07 02:55:04;;;;;;;8.90;0.98;;;;;;;;;;1044160;28;20449;-21
2023/04/07 02:55:35;;;;;;;2.53;0.45;;;;;;;;;;1043801;28;20027;-21
2023/04/07 02:56:05;;;;;;;3.67;1.27;;;;;;;;;;1044072;28;20027;-21
2023/04/07 02:56:36;;;;;;;4.82;1.40;;;;;;;;;;1043864;28;20374;-16
2023/04/07 02:57:06;;;;;;;4.18;2.60;;;;;;;;;;1043766;28;20029;-18
2023/04/07 02:57:37;;;;;;;1.88;1.42;;;;;;;;;;1042834;28;20095;-19
2023/04/07 02:58:07;;;;;;;3.28;2.10;;;;;;;;;;1044045;28;20025;-22
2023/04/07 02:58:38;;;;;;;4.10;3.67;;;;;;;;;;1043907;28;20037;-22
2023/04/07 02:59:08;;;;;;;17.48;2.10;;;;;;;;;;1044110;28;20104;-22
2023/04/07 02:59:40;;;;;;;1.30;1.20;;;;;;;;;;1043894;28;20401;-21
2023/04/07 03:00:12;;;;;;;1.63;1.27;;;;;;;;;;1042961;28;20028;-22
2023/04/07 03:00:43;;;;;;;0.75;0.68;;;;;;;;;;1043847;28;20036;-22
2023/04/07 03:01:13;;;;;;;21.02;2.97;;;;;;;;;;1043995;28;21187;-22
2023/04/07 03:01:44;;;;;;;1.85;0.88;;;;;;;;;;1043931;28;20453;-23
2023/04/07 03:02:14;;;;;;;1.00;0.80;;;;;;;;;;1043566;28;20495;-22
2023/04/07 03:02:45;;;;;;;2.53;1.35;;;;;;;;;;1043670;28;20032;-19
2023/04/07 03:03:15;;;;;;;9.02;1.80;;;;;;;;;;1043802;28;20025;-22
2023/04/07 03:03:46;;;;;;;6.68;1.65;;;;;;;;;;1043565;28;20021;-23
2023/04/07 03:04:17;;;;;;;8.15;1.55;;;;;;;;;;1044067;28;20025;-22
2023/04/07 03:04:47;;;;;;;3.63;1.13;;;;;;;;;;1043955;28;20066;-22
2023/04/07 03:05:18;;;;;;;3.70;1.27;;;;;;;;;;1043487;28;20127;-23
2023/04/07 03:05:48;;;;;;;11.27;3.47;;;;;;;;;;1043534;28;20074;-22
2023/04/07 03:06:19;;;;;;;2.33;1.63;;;;;;;;;;1043980;28;20123;-22
2023/04/07 03:06:49;;;;;;;7.45;2.65;;;;;;;;;;1043948;28;20020;-22
2023/04/07 03:07:20;;;;;;;4.97;1.10;;;;;;;;;;1044067;28;20032;-21
2023/04/07 03:07:50;;;;;;;8.18;2.83;;;;;;;;;;1043892;28;20476;-20
2023/04/07 03:08:21;;;;;;;4.13;1.05;;;;;;;;;;1044008;28;20067;-17
2023/04/07 03:08:51;;;;;;;3.08;1.58;;;;;;;;;;1043891;28;20032;-19
2023/04/07 03:09:22;;;;;;;4.18;1.77;;;;;;;;;;1043897;28;20123;-23
2023/04/07 03:09:53;;;;;;;10.20;2.13;;;;;;;;;;1043232;28;20052;-22